sensor_id;sensor_type;location;lat;lon;timestamp;P1;durP1;ratioP1;P2;durP2;ratioP2
77400;SDS011;66855;45.414;11.082;2023-02-04T00:00:05;127.40;;;48.40;;
77400;SDS011;66855;45.414;11.082;2023-02-04T00:02:33;123.00;;;47.20;;
77400;SDS011;66855;45.414;11.082;2023-02-04T00:05:00;120.20;;;45.00;;
77400;SDS011;66855;45.414;11.082;2023-02-04T00:07:26;106.50;;;44.40;;
77400;SDS011;66855;45.414;11.082;2023-02-04T00:09:53;105.60;;;41.40;;
77400;SDS011;66855;45.414;11.082;2023-02-04T00:12:20;107.40;;;41.20;;
77400;SDS011;66855;45.414;11.082;2023-02-04T00:14:49;129.80;;;48.30;;
77400;SDS011;66855;45.414;11.082;2023-02-04T00:17:16;144.70;;;52.10;;
77400;SDS011;66855;45.414;11.082;2023-02-04T00:19:43;124.50;;;47.90;;
77400;SDS011;66855;45.414;11.082;2023-02-04T00:22:10;111.20;;;44.30;;
77400;SDS011;66855;45.414;11.082;2023-02-04T00:24:37;121.50;;;45.20;;
77400;SDS011;66855;45.414;11.082;2023-02-04T00:27:04;127.90;;;47.40;;
77400;SDS011;66855;45.414;11.082;2023-02-04T00:29:31;112.10;;;43.70;;
77400;SDS011;66855;45.414;11.082;2023-02-04T00:31:58;130.40;;;48.10;;
77400;SDS011;66855;45.414;11.082;2023-02-04T00:34:26;126.90;;;45.50;;
77400;SDS011;66855;45.414;11.082;2023-02-04T00:36:52;109.60;;;42.80;;
77400;SDS011;66855;45.414;11.082;2023-02-04T00:39:19;106.40;;;41.80;;
77400;SDS011;66855;45.414;11.082;2023-02-04T00:41:46;117.80;;;44.60;;
77400;SDS011;66855;45.414;11.082;2023-02-04T00:44:13;88.60;;;37.90;;
77400;SDS011;66855;45.414;11.082;2023-02-04T00:46:40;94.80;;;38.40;;
77400;SDS011;66855;45.414;11.082;2023-02-04T00:49:08;107.90;;;41.50;;
77400;SDS011;66855;45.414;11.082;2023-02-04T00:51:37;112.30;;;42.10;;
77400;SDS011;66855;45.414;11.082;2023-02-04T00:54:05;129.00;;;46.20;;
77400;SDS011;66855;45.414;11.082;2023-02-04T00:56:33;129.90;;;48.50;;
77400;SDS011;66855;45.414;11.082;2023-02-04T00:59:01;123.30;;;46.30;;
77400;SDS011;66855;45.414;11.082;2023-02-04T01:01:28;107.60;;;43.20;;
77400;SDS011;66855;45.414;11.082;2023-02-04T01:03:55;102.50;;;39.90;;
77400;SDS011;66855;45.414;11.082;2023-02-04T01:06:22;110.50;;;42.00;;
77400;SDS011;66855;45.414;11.082;2023-02-04T01:08:49;108.10;;;41.00;;
77400;SDS011;66855;45.414;11.082;2023-02-04T01:11:16;110.70;;;41.80;;
77400;SDS011;66855;45.414;11.082;2023-02-04T01:13:44;106.30;;;40.10;;
77400;SDS011;66855;45.414;11.082;2023-02-04T01:16:11;140.00;;;50.90;;
77400;SDS011;66855;45.414;11.082;2023-02-04T01:18:38;129.10;;;47.90;;
77400;SDS011;66855;45.414;11.082;2023-02-04T01:21:05;116.00;;;45.90;;
77400;SDS011;66855;45.414;11.082;2023-02-04T01:23:32;115.00;;;43.90;;
77400;SDS011;66855;45.414;11.082;2023-02-04T01:25:59;109.10;;;43.00;;
77400;SDS011;66855;45.414;11.082;2023-02-04T01:28:26;118.40;;;44.90;;
77400;SDS011;66855;45.414;11.082;2023-02-04T01:30:53;117.20;;;44.60;;
77400;SDS011;66855;45.414;11.082;2023-02-04T01:33:20;118.80;;;46.50;;
77400;SDS011;66855;45.414;11.082;2023-02-04T01:35:46;141.80;;;50.30;;
77400;SDS011;66855;45.414;11.082;2023-02-04T01:38:13;122.50;;;44.90;;
77400;SDS011;66855;45.414;11.082;2023-02-04T01:40:40;111.40;;;44.40;;
77400;SDS011;66855;45.414;11.082;2023-02-04T01:43:08;105.20;;;42.70;;
77400;SDS011;66855;45.414;11.082;2023-02-04T01:45:36;109.80;;;45.80;;
77400;SDS011;66855;45.414;11.082;2023-02-04T01:48:03;117.10;;;43.90;;
77400;SDS011;66855;45.414;11.082;2023-02-04T01:50:31;119.80;;;47.30;;
77400;SDS011;66855;45.414;11.082;2023-02-04T01:52:58;114.00;;;43.00;;
77400;SDS011;66855;45.414;11.082;2023-02-04T01:55:27;105.10;;;42.00;;
77400;SDS011;66855;45.414;11.082;2023-02-04T01:57:55;104.50;;;42.20;;
77400;SDS011;66855;45.414;11.082;2023-02-04T02:00:25;103.60;;;42.90;;
77400;SDS011;66855;45.414;11.082;2023-02-04T02:02:56;112.90;;;43.70;;
77400;SDS011;66855;45.414;11.082;2023-02-04T02:05:26;108.40;;;43.00;;
77400;SDS011;66855;45.414;11.082;2023-02-04T02:07:57;109.10;;;44.60;;
77400;SDS011;66855;45.414;11.082;2023-02-04T02:12:53;111.80;;;44.20;;
77400;SDS011;66855;45.414;11.082;2023-02-04T02:15:21;115.60;;;43.00;;
77400;SDS011;66855;45.414;11.082;2023-02-04T02:17:49;116.60;;;44.30;;
77400;SDS011;66855;45.414;11.082;2023-02-04T02:20:17;108.00;;;43.80;;
77400;SDS011;66855;45.414;11.082;2023-02-04T02:25:16;114.40;;;44.70;;
77400;SDS011;66855;45.414;11.082;2023-02-04T02:27:43;133.30;;;47.00;;
77400;SDS011;66855;45.414;11.082;2023-02-04T02:30:11;120.70;;;44.50;;
77400;SDS011;66855;45.414;11.082;2023-02-04T02:32:43;105.60;;;41.00;;
77400;SDS011;66855;45.414;11.082;2023-02-04T02:35:12;97.10;;;37.10;;
77400;SDS011;66855;45.414;11.082;2023-02-04T02:37:39;98.20;;;39.80;;
77400;SDS011;66855;45.414;11.082;2023-02-04T02:40:06;104.60;;;42.50;;
77400;SDS011;66855;45.414;11.082;2023-02-04T02:42:34;103.30;;;40.00;;
77400;SDS011;66855;45.414;11.082;2023-02-04T02:45:02;88.50;;;35.10;;
77400;SDS011;66855;45.414;11.082;2023-02-04T02:47:33;98.10;;;40.10;;
77400;SDS011;66855;45.414;11.082;2023-02-04T02:50:03;128.60;;;46.40;;
77400;SDS011;66855;45.414;11.082;2023-02-04T02:52:30;121.10;;;43.40;;
77400;SDS011;66855;45.414;11.082;2023-02-04T02:54:57;108.60;;;42.10;;
77400;SDS011;66855;45.414;11.082;2023-02-04T02:57:23;94.20;;;36.00;;
77400;SDS011;66855;45.414;11.082;2023-02-04T02:59:50;107.50;;;42.00;;
77400;SDS011;66855;45.414;11.082;2023-02-04T03:02:18;102.40;;;39.50;;
77400;SDS011;66855;45.414;11.082;2023-02-04T03:04:49;84.00;;;32.80;;
77400;SDS011;66855;45.414;11.082;2023-02-04T03:07:19;103.60;;;38.70;;
77400;SDS011;66855;45.414;11.082;2023-02-04T03:09:47;107.10;;;40.70;;
77400;SDS011;66855;45.414;11.082;2023-02-04T03:12:15;92.50;;;36.40;;
77400;SDS011;66855;45.414;11.082;2023-02-04T03:14:42;88.60;;;34.80;;
77400;SDS011;66855;45.414;11.082;2023-02-04T03:17:09;82.20;;;33.00;;
77400;SDS011;66855;45.414;11.082;2023-02-04T03:19:36;76.30;;;31.00;;
77400;SDS011;66855;45.414;11.082;2023-02-04T03:22:04;71.00;;;29.10;;
77400;SDS011;66855;45.414;11.082;2023-02-04T03:24:32;63.60;;;25.50;;
77400;SDS011;66855;45.414;11.082;2023-02-04T03:27:01;65.10;;;26.70;;
77400;SDS011;66855;45.414;11.082;2023-02-04T03:29:28;62.50;;;24.70;;
77400;SDS011;66855;45.414;11.082;2023-02-04T03:31:55;78.50;;;28.00;;
77400;SDS011;66855;45.414;11.082;2023-02-04T03:34:25;79.20;;;31.50;;
77400;SDS011;66855;45.414;11.082;2023-02-04T03:36:52;71.00;;;27.50;;
77400;SDS011;66855;45.414;11.082;2023-02-04T03:39:19;65.00;;;27.90;;
77400;SDS011;66855;45.414;11.082;2023-02-04T03:41:46;68.30;;;26.90;;
77400;SDS011;66855;45.414;11.082;2023-02-04T03:44:12;70.70;;;29.20;;
77400;SDS011;66855;45.414;11.082;2023-02-04T03:46:39;72.20;;;28.80;;
77400;SDS011;66855;45.414;11.082;2023-02-04T03:49:06;71.30;;;29.40;;
77400;SDS011;66855;45.414;11.082;2023-02-04T03:51:33;68.20;;;28.60;;
77400;SDS011;66855;45.414;11.082;2023-02-04T03:54:00;88.40;;;32.50;;
77400;SDS011;66855;45.414;11.082;2023-02-04T03:56:27;89.30;;;34.60;;
77400;SDS011;66855;45.414;11.082;2023-02-04T03:58:54;77.70;;;30.20;;
77400;SDS011;66855;45.414;11.082;2023-02-04T04:01:20;79.70;;;33.20;;
77400;SDS011;66855;45.414;11.082;2023-02-04T04:03:47;78.70;;;30.70;;
77400;SDS011;66855;45.414;11.082;2023-02-04T04:06:14;82.30;;;34.60;;
77400;SDS011;66855;45.414;11.082;2023-02-04T04:08:44;96.10;;;38.10;;
77400;SDS011;66855;45.414;11.082;2023-02-04T04:11:11;90.60;;;35.50;;
77400;SDS011;66855;45.414;11.082;2023-02-04T04:13:37;88.40;;;36.30;;
77400;SDS011;66855;45.414;11.082;2023-02-04T04:16:04;86.60;;;35.50;;
77400;SDS011;66855;45.414;11.082;2023-02-04T04:18:32;88.20;;;34.20;;
77400;SDS011;66855;45.414;11.082;2023-02-04T04:20:58;92.20;;;35.40;;
77400;SDS011;66855;45.414;11.082;2023-02-04T04:23:26;92.00;;;35.70;;
77400;SDS011;66855;45.414;11.082;2023-02-04T04:25:52;105.20;;;39.10;;
77400;SDS011;66855;45.414;11.082;2023-02-04T04:28:19;99.50;;;37.50;;
77400;SDS011;66855;45.414;11.082;2023-02-04T04:30:46;86.80;;;36.70;;
77400;SDS011;66855;45.414;11.082;2023-02-04T04:33:13;86.70;;;32.60;;
77400;SDS011;66855;45.414;11.082;2023-02-04T04:35:40;74.20;;;30.10;;
77400;SDS011;66855;45.414;11.082;2023-02-04T04:38:07;73.00;;;29.70;;
77400;SDS011;66855;45.414;11.082;2023-02-04T04:40:33;75.60;;;28.40;;
77400;SDS011;66855;45.414;11.082;2023-02-04T04:43:01;71.30;;;29.20;;
77400;SDS011;66855;45.414;11.082;2023-02-04T04:45:28;65.80;;;27.40;;
77400;SDS011;66855;45.414;11.082;2023-02-04T04:47:54;72.00;;;28.90;;
77400;SDS011;66855;45.414;11.082;2023-02-04T04:50:21;84.50;;;31.10;;
77400;SDS011;66855;45.414;11.082;2023-02-04T04:52:48;78.50;;;30.60;;
77400;SDS011;66855;45.414;11.082;2023-02-04T04:55:15;70.80;;;29.90;;
77400;SDS011;66855;45.414;11.082;2023-02-04T04:57:42;69.80;;;27.70;;
77400;SDS011;66855;45.414;11.082;2023-02-04T05:00:10;68.80;;;27.50;;
77400;SDS011;66855;45.414;11.082;2023-02-04T05:02:40;68.20;;;27.00;;
77400;SDS011;66855;45.414;11.082;2023-02-04T05:05:07;58.40;;;21.90;;
77400;SDS011;66855;45.414;11.082;2023-02-04T05:07:35;57.50;;;23.60;;
77400;SDS011;66855;45.414;11.082;2023-02-04T05:10:02;53.30;;;19.70;;
77400;SDS011;66855;45.414;11.082;2023-02-04T05:12:30;88.40;;;33.00;;
77400;SDS011;66855;45.414;11.082;2023-02-04T05:14:57;83.40;;;29.60;;
77400;SDS011;66855;45.414;11.082;2023-02-04T05:17:24;84.50;;;31.30;;
77400;SDS011;66855;45.414;11.082;2023-02-04T05:19:54;72.50;;;29.70;;
77400;SDS011;66855;45.414;11.082;2023-02-04T05:22:20;73.20;;;29.20;;
77400;SDS011;66855;45.414;11.082;2023-02-04T05:24:47;73.10;;;29.40;;
77400;SDS011;66855;45.414;11.082;2023-02-04T05:27:14;74.30;;;30.30;;
77400;SDS011;66855;45.414;11.082;2023-02-04T05:29:41;67.80;;;24.50;;
77400;SDS011;66855;45.414;11.082;2023-02-04T05:32:08;62.70;;;24.90;;
77400;SDS011;66855;45.414;11.082;2023-02-04T05:34:34;79.70;;;28.90;;
77400;SDS011;66855;45.414;11.082;2023-02-04T05:37:01;86.70;;;32.10;;
77400;SDS011;66855;45.414;11.082;2023-02-04T05:39:28;81.80;;;30.40;;
77400;SDS011;66855;45.414;11.082;2023-02-04T05:41:55;79.50;;;30.70;;
77400;SDS011;66855;45.414;11.082;2023-02-04T05:44:22;71.20;;;29.40;;
77400;SDS011;66855;45.414;11.082;2023-02-04T05:46:48;70.10;;;28.10;;
77400;SDS011;66855;45.414;11.082;2023-02-04T05:49:15;74.70;;;29.60;;
77400;SDS011;66855;45.414;11.082;2023-02-04T05:51:42;81.30;;;30.20;;
77400;SDS011;66855;45.414;11.082;2023-02-04T05:54:08;88.20;;;32.80;;
77400;SDS011;66855;45.414;11.082;2023-02-04T05:56:35;81.40;;;29.80;;
77400;SDS011;66855;45.414;11.082;2023-02-04T05:59:02;81.70;;;30.30;;
77400;SDS011;66855;45.414;11.082;2023-02-04T06:01:29;78.00;;;30.40;;
77400;SDS011;66855;45.414;11.082;2023-02-04T06:03:55;76.80;;;31.40;;
77400;SDS011;66855;45.414;11.082;2023-02-04T06:06:22;84.00;;;32.60;;
77400;SDS011;66855;45.414;11.082;2023-02-04T06:08:49;96.20;;;33.60;;
77400;SDS011;66855;45.414;11.082;2023-02-04T06:11:16;86.60;;;32.90;;
77400;SDS011;66855;45.414;11.082;2023-02-04T06:13:42;86.60;;;30.80;;
77400;SDS011;66855;45.414;11.082;2023-02-04T06:16:09;75.60;;;30.50;;
77400;SDS011;66855;45.414;11.082;2023-02-04T06:18:36;83.50;;;33.50;;
77400;SDS011;66855;45.414;11.082;2023-02-04T06:21:02;81.00;;;33.30;;
77400;SDS011;66855;45.414;11.082;2023-02-04T06:23:30;100.90;;;36.90;;
77400;SDS011;66855;45.414;11.082;2023-02-04T06:28:27;93.20;;;34.70;;
77400;SDS011;66855;45.414;11.082;2023-02-04T06:30:53;88.70;;;34.70;;
77400;SDS011;66855;45.414;11.082;2023-02-04T06:33:20;92.90;;;35.20;;
77400;SDS011;66855;45.414;11.082;2023-02-04T06:35:49;97.40;;;36.20;;
77400;SDS011;66855;45.414;11.082;2023-02-04T06:38:16;95.40;;;37.60;;
77400;SDS011;66855;45.414;11.082;2023-02-04T06:40:43;98.70;;;37.10;;
77400;SDS011;66855;45.414;11.082;2023-02-04T06:43:10;94.10;;;35.20;;
77400;SDS011;66855;45.414;11.082;2023-02-04T06:45:36;91.00;;;35.70;;
77400;SDS011;66855;45.414;11.082;2023-02-04T06:48:03;84.60;;;32.20;;
77400;SDS011;66855;45.414;11.082;2023-02-04T06:50:30;87.00;;;34.80;;
77400;SDS011;66855;45.414;11.082;2023-02-04T06:52:57;96.20;;;38.00;;
77400;SDS011;66855;45.414;11.082;2023-02-04T06:55:24;87.70;;;33.80;;
77400;SDS011;66855;45.414;11.082;2023-02-04T06:57:51;83.20;;;33.70;;
77400;SDS011;66855;45.414;11.082;2023-02-04T07:00:17;112.70;;;39.80;;
77400;SDS011;66855;45.414;11.082;2023-02-04T07:02:44;109.70;;;40.40;;
77400;SDS011;66855;45.414;11.082;2023-02-04T07:05:11;102.80;;;41.00;;
77400;SDS011;66855;45.414;11.082;2023-02-04T07:07:38;91.10;;;35.80;;
77400;SDS011;66855;45.414;11.082;2023-02-04T07:10:05;94.60;;;37.70;;
77400;SDS011;66855;45.414;11.082;2023-02-04T07:12:32;89.60;;;37.70;;
77400;SDS011;66855;45.414;11.082;2023-02-04T07:14:58;84.90;;;33.80;;
77400;SDS011;66855;45.414;11.082;2023-02-04T07:17:25;75.50;;;28.90;;
77400;SDS011;66855;45.414;11.082;2023-02-04T07:19:52;77.50;;;29.90;;
77400;SDS011;66855;45.414;11.082;2023-02-04T07:22:18;81.40;;;34.60;;
77400;SDS011;66855;45.414;11.082;2023-02-04T07:24:45;87.00;;;33.70;;
77400;SDS011;66855;45.414;11.082;2023-02-04T07:27:12;84.80;;;33.40;;
77400;SDS011;66855;45.414;11.082;2023-02-04T07:29:38;83.80;;;34.50;;
77400;SDS011;66855;45.414;11.082;2023-02-04T07:32:05;88.80;;;37.80;;
77400;SDS011;66855;45.414;11.082;2023-02-04T07:34:32;96.00;;;37.00;;
77400;SDS011;66855;45.414;11.082;2023-02-04T07:36:59;96.70;;;40.80;;
77400;SDS011;66855;45.414;11.082;2023-02-04T07:39:25;92.00;;;37.20;;
77400;SDS011;66855;45.414;11.082;2023-02-04T07:41:52;92.30;;;37.40;;
77400;SDS011;66855;45.414;11.082;2023-02-04T07:44:21;105.80;;;41.50;;
77400;SDS011;66855;45.414;11.082;2023-02-04T07:46:47;96.30;;;39.40;;
77400;SDS011;66855;45.414;11.082;2023-02-04T07:49:14;94.00;;;39.00;;
77400;SDS011;66855;45.414;11.082;2023-02-04T07:51:41;98.80;;;40.30;;
77400;SDS011;66855;45.414;11.082;2023-02-04T07:54:07;96.90;;;40.90;;
77400;SDS011;66855;45.414;11.082;2023-02-04T07:56:34;97.10;;;39.00;;
77400;SDS011;66855;45.414;11.082;2023-02-04T07:59:01;95.10;;;39.20;;
77400;SDS011;66855;45.414;11.082;2023-02-04T08:01:28;95.00;;;39.80;;
77400;SDS011;66855;45.414;11.082;2023-02-04T08:03:55;92.70;;;38.60;;
77400;SDS011;66855;45.414;11.082;2023-02-04T08:06:21;95.80;;;41.10;;
77400;SDS011;66855;45.414;11.082;2023-02-04T08:08:48;105.30;;;42.70;;
77400;SDS011;66855;45.414;11.082;2023-02-04T08:11:15;103.80;;;42.00;;
77400;SDS011;66855;45.414;11.082;2023-02-04T08:13:41;92.00;;;38.80;;
77400;SDS011;66855;45.414;11.082;2023-02-04T08:16:08;86.50;;;37.30;;
77400;SDS011;66855;45.414;11.082;2023-02-04T08:18:37;95.30;;;39.30;;
77400;SDS011;66855;45.414;11.082;2023-02-04T08:21:04;92.00;;;38.60;;
77400;SDS011;66855;45.414;11.082;2023-02-04T08:23:31;92.40;;;38.40;;
77400;SDS011;66855;45.414;11.082;2023-02-04T08:25:58;85.90;;;35.60;;
77400;SDS011;66855;45.414;11.082;2023-02-04T08:28:25;89.50;;;37.10;;
77400;SDS011;66855;45.414;11.082;2023-02-04T08:30:52;99.00;;;40.40;;
77400;SDS011;66855;45.414;11.082;2023-02-04T08:33:19;86.70;;;37.20;;
77400;SDS011;66855;45.414;11.082;2023-02-04T08:35:47;88.40;;;37.20;;
77400;SDS011;66855;45.414;11.082;2023-02-04T08:38:14;90.30;;;36.40;;
77400;SDS011;66855;45.414;11.082;2023-02-04T08:40:41;80.90;;;36.50;;
77400;SDS011;66855;45.414;11.082;2023-02-04T08:43:07;97.00;;;40.20;;
77400;SDS011;66855;45.414;11.082;2023-02-04T08:45:34;94.60;;;38.90;;
77400;SDS011;66855;45.414;11.082;2023-02-04T08:48:01;88.80;;;38.30;;
77400;SDS011;66855;45.414;11.082;2023-02-04T08:50:27;86.00;;;35.40;;
77400;SDS011;66855;45.414;11.082;2023-02-04T08:52:56;85.80;;;37.50;;
77400;SDS011;66855;45.414;11.082;2023-02-04T08:55:23;95.20;;;39.80;;
77400;SDS011;66855;45.414;11.082;2023-02-04T08:57:49;95.70;;;40.80;;
77400;SDS011;66855;45.414;11.082;2023-02-04T09:00:16;101.30;;;40.80;;
77400;SDS011;66855;45.414;11.082;2023-02-04T09:02:44;90.30;;;39.30;;
77400;SDS011;66855;45.414;11.082;2023-02-04T09:05:10;101.90;;;45.00;;
77400;SDS011;66855;45.414;11.082;2023-02-04T09:07:37;88.70;;;39.70;;
77400;SDS011;66855;45.414;11.082;2023-02-04T09:10:04;97.10;;;40.10;;
77400;SDS011;66855;45.414;11.082;2023-02-04T09:12:31;100.90;;;41.50;;
77400;SDS011;66855;45.414;11.082;2023-02-04T09:14:58;92.00;;;39.70;;
77400;SDS011;66855;45.414;11.082;2023-02-04T09:17:25;96.20;;;41.90;;
77400;SDS011;66855;45.414;11.082;2023-02-04T09:19:51;106.90;;;45.30;;
77400;SDS011;66855;45.414;11.082;2023-02-04T09:22:18;112.40;;;46.00;;
77400;SDS011;66855;45.414;11.082;2023-02-04T09:24:45;114.70;;;46.90;;
77400;SDS011;66855;45.414;11.082;2023-02-04T09:27:11;116.60;;;48.80;;
77400;SDS011;66855;45.414;11.082;2023-02-04T09:29:38;127.10;;;52.80;;
77400;SDS011;66855;45.414;11.082;2023-02-04T09:32:05;121.10;;;50.90;;
77400;SDS011;66855;45.414;11.082;2023-02-04T09:34:32;116.90;;;48.60;;
77400;SDS011;66855;45.414;11.082;2023-02-04T09:36:59;128.30;;;53.00;;
77400;SDS011;66855;45.414;11.082;2023-02-04T09:39:25;123.50;;;51.70;;
77400;SDS011;66855;45.414;11.082;2023-02-04T09:41:53;142.60;;;54.60;;
77400;SDS011;66855;45.414;11.082;2023-02-04T09:44:21;131.90;;;54.10;;
77400;SDS011;66855;45.414;11.082;2023-02-04T09:46:54;132.40;;;54.00;;
77400;SDS011;66855;45.414;11.082;2023-02-04T09:49:22;129.60;;;54.90;;
77400;SDS011;66855;45.414;11.082;2023-02-04T09:51:50;133.60;;;57.10;;
77400;SDS011;66855;45.414;11.082;2023-02-04T09:54:18;137.60;;;55.10;;
77400;SDS011;66855;45.414;11.082;2023-02-04T09:56:46;145.20;;;60.30;;
77400;SDS011;66855;45.414;11.082;2023-02-04T09:59:15;135.50;;;54.60;;
77400;SDS011;66855;45.414;11.082;2023-02-04T10:01:50;148.20;;;59.10;;
77400;SDS011;66855;45.414;11.082;2023-02-04T10:04:21;141.00;;;57.90;;
77400;SDS011;66855;45.414;11.082;2023-02-04T10:06:48;135.70;;;59.30;;
77400;SDS011;66855;45.414;11.082;2023-02-04T10:09:15;140.00;;;58.80;;
77400;SDS011;66855;45.414;11.082;2023-02-04T10:11:50;137.30;;;57.40;;
77400;SDS011;66855;45.414;11.082;2023-02-04T10:14:18;137.80;;;56.80;;
77400;SDS011;66855;45.414;11.082;2023-02-04T10:16:50;137.70;;;58.70;;
77400;SDS011;66855;45.414;11.082;2023-02-04T10:19:23;140.70;;;58.30;;
77400;SDS011;66855;45.414;11.082;2023-02-04T10:21:50;143.80;;;59.40;;
77400;SDS011;66855;45.414;11.082;2023-02-04T10:24:18;133.20;;;57.20;;
77400;SDS011;66855;45.414;11.082;2023-02-04T10:26:46;140.10;;;57.90;;
77400;SDS011;66855;45.414;11.082;2023-02-04T10:29:16;139.70;;;56.10;;
77400;SDS011;66855;45.414;11.082;2023-02-04T10:31:45;137.20;;;56.30;;
77400;SDS011;66855;45.414;11.082;2023-02-04T10:34:15;134.90;;;56.20;;
77400;SDS011;66855;45.414;11.082;2023-02-04T10:36:47;116.60;;;47.00;;
77400;SDS011;66855;45.414;11.082;2023-02-04T10:39:17;136.50;;;57.90;;
77400;SDS011;66855;45.414;11.082;2023-02-04T10:41:46;145.50;;;59.70;;
77400;SDS011;66855;45.414;11.082;2023-02-04T10:44:29;138.60;;;58.00;;
77400;SDS011;66855;45.414;11.082;2023-02-04T10:47:14;126.60;;;54.80;;
77400;SDS011;66855;45.414;11.082;2023-02-04T10:49:56;137.10;;;56.70;;
77400;SDS011;66855;45.414;11.082;2023-02-04T10:52:35;137.70;;;55.80;;
77400;SDS011;66855;45.414;11.082;2023-02-04T10:55:07;131.30;;;57.60;;
77400;SDS011;66855;45.414;11.082;2023-02-04T10:57:39;136.00;;;57.30;;
77400;SDS011;66855;45.414;11.082;2023-02-04T11:00:25;132.90;;;55.50;;
77400;SDS011;66855;45.414;11.082;2023-02-04T11:02:59;140.80;;;56.20;;
77400;SDS011;66855;45.414;11.082;2023-02-04T11:05:30;143.00;;;58.70;;
77400;SDS011;66855;45.414;11.082;2023-02-04T11:07:58;140.70;;;60.30;;
77400;SDS011;66855;45.414;11.082;2023-02-04T11:10:32;143.40;;;62.50;;
77400;SDS011;66855;45.414;11.082;2023-02-04T11:13:01;131.50;;;56.80;;
77400;SDS011;66855;45.414;11.082;2023-02-04T11:15:41;132.20;;;58.90;;
77400;SDS011;66855;45.414;11.082;2023-02-04T11:18:11;139.40;;;58.80;;
77400;SDS011;66855;45.414;11.082;2023-02-04T11:20:38;134.60;;;54.90;;
77400;SDS011;66855;45.414;11.082;2023-02-04T11:25:48;119.30;;;47.50;;
77400;SDS011;66855;45.414;11.082;2023-02-04T11:28:21;132.60;;;56.60;;
77400;SDS011;66855;45.414;11.082;2023-02-04T11:31:00;128.90;;;54.80;;
77400;SDS011;66855;45.414;11.082;2023-02-04T11:33:36;128.00;;;53.30;;
77400;SDS011;66855;45.414;11.082;2023-02-04T11:36:05;143.10;;;58.90;;
77400;SDS011;66855;45.414;11.082;2023-02-04T11:38:33;140.70;;;58.80;;
77400;SDS011;66855;45.414;11.082;2023-02-04T11:41:00;136.80;;;59.50;;
77400;SDS011;66855;45.414;11.082;2023-02-04T11:43:27;143.40;;;61.50;;
77400;SDS011;66855;45.414;11.082;2023-02-04T11:45:59;146.70;;;60.00;;
77400;SDS011;66855;45.414;11.082;2023-02-04T11:48:28;131.30;;;58.00;;
77400;SDS011;66855;45.414;11.082;2023-02-04T11:50:56;128.10;;;54.50;;
77400;SDS011;66855;45.414;11.082;2023-02-04T11:53:30;134.90;;;60.40;;
77400;SDS011;66855;45.414;11.082;2023-02-04T11:55:58;130.30;;;57.00;;
77400;SDS011;66855;45.414;11.082;2023-02-04T11:58:25;113.60;;;50.00;;
77400;SDS011;66855;45.414;11.082;2023-02-04T12:00:54;126.50;;;53.40;;
77400;SDS011;66855;45.414;11.082;2023-02-04T12:03:28;119.80;;;52.50;;
77400;SDS011;66855;45.414;11.082;2023-02-04T12:08:25;115.20;;;47.10;;
77400;SDS011;66855;45.414;11.082;2023-02-04T12:13:27;119.00;;;51.50;;
77400;SDS011;66855;45.414;11.082;2023-02-04T12:18:27;122.50;;;50.30;;
77400;SDS011;66855;45.414;11.082;2023-02-04T12:20:55;139.10;;;57.20;;
77400;SDS011;66855;45.414;11.082;2023-02-04T12:23:23;135.00;;;60.10;;
77400;SDS011;66855;45.414;11.082;2023-02-04T12:25:50;120.90;;;54.70;;
77400;SDS011;66855;45.414;11.082;2023-02-04T12:28:17;124.30;;;56.50;;
77400;SDS011;66855;45.414;11.082;2023-02-04T12:30:44;129.70;;;57.40;;
77400;SDS011;66855;45.414;11.082;2023-02-04T12:33:11;128.50;;;56.10;;
77400;SDS011;66855;45.414;11.082;2023-02-04T12:35:40;127.20;;;54.80;;
77400;SDS011;66855;45.414;11.082;2023-02-04T12:38:07;121.30;;;55.50;;
77400;SDS011;66855;45.414;11.082;2023-02-04T12:40:34;130.30;;;54.20;;
77400;SDS011;66855;45.414;11.082;2023-02-04T12:43:01;124.70;;;54.50;;
77400;SDS011;66855;45.414;11.082;2023-02-04T12:45:28;125.00;;;57.10;;
77400;SDS011;66855;45.414;11.082;2023-02-04T12:47:55;119.90;;;54.80;;
77400;SDS011;66855;45.414;11.082;2023-02-04T12:50:22;113.40;;;51.30;;
77400;SDS011;66855;45.414;11.082;2023-02-04T12:52:49;115.10;;;51.70;;
77400;SDS011;66855;45.414;11.082;2023-02-04T12:55:17;126.60;;;54.40;;
77400;SDS011;66855;45.414;11.082;2023-02-04T12:57:44;119.70;;;52.70;;
77400;SDS011;66855;45.414;11.082;2023-02-04T13:00:12;112.30;;;47.90;;
77400;SDS011;66855;45.414;11.082;2023-02-04T13:02:40;120.80;;;54.10;;
77400;SDS011;66855;45.414;11.082;2023-02-04T13:05:07;123.40;;;55.30;;
77400;SDS011;66855;45.414;11.082;2023-02-04T13:07:35;113.40;;;50.80;;
77400;SDS011;66855;45.414;11.082;2023-02-04T13:10:02;117.90;;;54.20;;
77400;SDS011;66855;45.414;11.082;2023-02-04T13:12:29;121.00;;;52.90;;
77400;SDS011;66855;45.414;11.082;2023-02-04T13:14:56;119.20;;;52.60;;
77400;SDS011;66855;45.414;11.082;2023-02-04T13:17:23;109.90;;;46.50;;
77400;SDS011;66855;45.414;11.082;2023-02-04T13:19:50;114.80;;;51.80;;
77400;SDS011;66855;45.414;11.082;2023-02-04T13:22:16;115.10;;;51.70;;
77400;SDS011;66855;45.414;11.082;2023-02-04T13:24:43;110.00;;;50.30;;
77400;SDS011;66855;45.414;11.082;2023-02-04T13:27:10;111.70;;;50.10;;
77400;SDS011;66855;45.414;11.082;2023-02-04T13:29:36;115.50;;;50.60;;
77400;SDS011;66855;45.414;11.082;2023-02-04T13:32:03;117.40;;;56.30;;
77400;SDS011;66855;45.414;11.082;2023-02-04T13:34:30;115.90;;;51.50;;
77400;SDS011;66855;45.414;11.082;2023-02-04T13:36:57;110.10;;;47.50;;
77400;SDS011;66855;45.414;11.082;2023-02-04T13:39:23;103.20;;;46.50;;
77400;SDS011;66855;45.414;11.082;2023-02-04T13:41:50;109.90;;;50.10;;
77400;SDS011;66855;45.414;11.082;2023-02-04T13:44:17;106.20;;;45.50;;
77400;SDS011;66855;45.414;11.082;2023-02-04T13:46:44;111.00;;;50.10;;
77400;SDS011;66855;45.414;11.082;2023-02-04T13:49:10;116.50;;;51.70;;
77400;SDS011;66855;45.414;11.082;2023-02-04T13:51:37;115.00;;;49.10;;
77400;SDS011;66855;45.414;11.082;2023-02-04T13:54:04;113.40;;;50.30;;
77400;SDS011;66855;45.414;11.082;2023-02-04T13:56:31;111.30;;;54.00;;
77400;SDS011;66855;45.414;11.082;2023-02-04T13:58:58;107.50;;;49.10;;
77400;SDS011;66855;45.414;11.082;2023-02-04T14:01:24;112.00;;;49.50;;
77400;SDS011;66855;45.414;11.082;2023-02-04T14:03:51;113.00;;;49.90;;
77400;SDS011;66855;45.414;11.082;2023-02-04T14:06:18;119.20;;;51.10;;
77400;SDS011;66855;45.414;11.082;2023-02-04T14:08:47;128.60;;;58.70;;
77400;SDS011;66855;45.414;11.082;2023-02-04T14:11:14;109.00;;;51.70;;
77400;SDS011;66855;45.414;11.082;2023-02-04T14:13:40;99.40;;;44.20;;
77400;SDS011;66855;45.414;11.082;2023-02-04T14:16:07;93.80;;;42.30;;
77400;SDS011;66855;45.414;11.082;2023-02-04T14:18:35;90.70;;;40.30;;
77400;SDS011;66855;45.414;11.082;2023-02-04T14:21:01;104.40;;;45.90;;